Time;durP1;ratioP1;P1;durP2;ratioP2;P2;SDS_P1;SDS_P2;PMS_P1;PMS_P2;Temp;Humidity;BMP_temperature;BMP_pressure;BME280_temperature;BME280_humidity;BME280_pressure;Samples;Min_cycle;Max_cycle;Signal;HPM_P1;HPM_P2
2024/02/12 00:02:18;;;;;;;;;3.33;3.00;;;;;-147.14;100.00;58812.66;5038284;28;45313;-45
2024/02/12 00:04:50;;;;;;;;;1.00;1.00;;;;;-147.14;100.00;58812.66;5041805;28;45323;-48
2024/02/12 00:07:16;;;;;;;;;2.67;1.00;;;;;-147.14;100.00;58812.66;5044124;28;45494;-49
2024/02/12 00:09:45;;;;;;;;;3.67;2.00;;;;;-147.14;100.00;58812.66;5038562;28;45515;-45
2024/02/12 00:12:11;;;;;;;;;2.00;2.00;;;;;-147.14;100.00;58812.66;5044901;28;47117;-49
2024/02/12 00:14:40;;;;;;;;;2.33;2.33;;;;;-147.14;100.00;58812.66;5049225;28;45379;-48
2024/02/12 00:17:09;;;;;;;;;2.33;1.00;;;;;-147.14;100.00;58812.66;5042153;28;45467;-49
2024/02/12 00:19:34;;;;;;;;;2.00;2.00;;;;;-147.14;100.00;58812.66;5041467;28;45371;-45
2024/02/12 00:22:01;;;;;;;;;7.33;4.00;;;;;-147.14;100.00;58812.66;5041251;28;63018;-46
2024/02/12 00:24:28;;;;;;;;;1.67;1.33;;;;;-147.14;100.00;58812.66;5040894;28;45421;-46
2024/02/12 00:26:55;;;;;;;;;1.00;1.00;;;;;-147.14;100.00;58812.66;5047806;28;45368;-48
2024/02/12 00:29:20;;;;;;;;;3.00;3.00;;;;;-147.14;100.00;58812.66;5057977;28;45710;-46
2024/02/12 00:31:46;;;;;;;;;1.00;1.00;;;;;-147.14;100.00;58812.66;5056828;28;75474;-49
2024/02/12 00:34:12;;;;;;;;;2.00;1.00;;;;;-147.14;100.00;58812.66;5057868;28;45411;-48
2024/02/12 00:36:37;;;;;;;;;1.33;1.33;;;;;-147.14;100.00;58812.66;5056997;28;45285;-46
2024/02/12 00:39:07;;;;;;;;;6.00;2.00;;;;;-147.14;100.00;58812.66;5058198;28;69327;-46
2024/02/12 00:41:32;;;;;;;;;2.00;2.00;;;;;-147.14;100.00;58812.66;5046401;28;46358;-48
2024/02/12 00:43:57;;;;;;;;;6.00;1.33;;;;;-147.14;100.00;58812.66;5056620;28;73018;-49
2024/02/12 00:46:22;;;;;;;;;2.00;2.00;;;;;-147.14;100.00;58812.66;5039827;28;69327;-48
2024/02/12 00:48:48;;;;;;;;;2.33;2.00;;;;;-147.14;100.00;58812.66;5039718;28;69476;-50
2024/02/12 00:51:15;;;;;;;;;2.67;2.67;;;;;-147.14;100.00;58812.66;5052776;28;46260;-49
2024/02/12 00:53:41;;;;;;;;;4.00;2.00;;;;;-147.14;100.00;58812.66;5039791;28;45314;-44
2024/02/12 00:56:07;;;;;;;;;1.33;1.33;;;;;-147.14;100.00;58812.66;5040767;28;45697;-45
2024/02/12 00:58:33;;;;;;;;;3.00;1.33;;;;;-147.14;100.00;58812.66;5040615;28;45232;-45
2024/02/12 01:00:59;;;;;;;;;1.00;1.00;;;;;-147.14;100.00;58812.66;5050344;28;45485;-44
2024/02/12 01:03:25;;;;;;;;;3.33;2.00;;;;;-147.14;100.00;58812.66;5046599;28;45379;-45
2024/02/12 01:05:50;;;;;;;;;2.33;2.33;;;;;-147.14;100.00;58812.66;5041122;28;45349;-46
2024/02/12 01:08:16;;;;;;;;;3.00;1.67;;;;;-147.14;100.00;58812.66;5039657;28;45586;-48
2024/02/12 01:10:42;;;;;;;;;5.00;2.00;;;;;-147.14;100.00;58812.66;5044917;28;45566;-49
2024/02/12 01:13:07;;;;;;;;;5.67;1.67;;;;;-147.14;100.00;58812.66;5057712;28;45426;-48
2024/02/12 01:15:33;;;;;;;;;5.00;2.00;;;;;-147.14;100.00;58812.66;5039886;28;69125;-48
2024/02/12 01:17:58;;;;;;;;;2.67;1.00;;;;;-147.14;100.00;58812.66;5040174;28;45577;-48
2024/02/12 01:20:23;;;;;;;;;2.00;1.00;;;;;-147.14;100.00;58812.66;5039143;28;75417;-48
2024/02/12 01:22:49;;;;;;;;;3.33;2.00;;;;;-147.14;100.00;58812.66;5040300;28;45389;-47
2024/02/12 01:25:17;;;;;;;;;2.00;1.00;;;;;-147.14;100.00;58812.66;5045112;28;45399;-48
2024/02/12 01:27:42;;;;;;;;;5.00;2.00;;;;;-147.14;100.00;58812.66;5047738;28;45206;-45
2024/02/12 01:30:09;;;;;;;;;4.00;1.00;;;;;-147.14;100.00;58812.66;5054972;28;69696;-48
2024/02/12 01:32:34;;;;;;;;;1.00;1.00;;;;;-147.14;100.00;58812.66;5058270;28;45540;-47
2024/02/12 01:34:59;;;;;;;;;2.67;1.00;;;;;-147.14;100.00;58812.66;5055641;28;68947;-50
2024/02/12 01:37:27;;;;;;;;;3.00;1.00;;;;;-147.14;100.00;58812.66;5056934;28;68587;-46
2024/02/12 01:39:52;;;;;;;;;2.00;2.00;;;;;-147.14;100.00;58812.66;5056045;28;47130;-47
2024/02/12 01:42:17;;;;;;;;;3.00;1.00;;;;;-147.14;100.00;58812.66;5056503;28;45342;-47
2024/02/12 01:45:08;;;;;;;;;4.33;2.00;;;;;-147.14;100.00;58812.66;5051666;28;45459;-45
2024/02/12 01:47:34;;;;;;;;;4.33;1.67;;;;;-147.14;100.00;58812.66;5040257;28;46372;-46
2024/02/12 01:50:00;;;;;;;;;4.67;2.00;;;;;-147.14;100.00;58812.66;5039420;28;57072;-48
2024/02/12 01:52:26;;;;;;;;;3.67;1.00;;;;;-147.14;100.00;58812.66;5041114;28;45858;-47
2024/02/12 01:54:53;;;;;;;;;3.00;2.00;;;;;-147.14;100.00;58812.66;5041091;28;45402;-46
2024/02/12 01:57:19;;;;;;;;;0.67;0.67;;;;;-147.14;100.00;58812.66;5027357;28;45258;-48
2024/02/12 01:59:44;;;;;;;;;2.00;1.00;;;;;-147.14;100.00;58812.66;5054353;28;45297;-46
2024/02/12 02:02:14;;;;;;;;;3.67;2.00;;;;;-147.14;100.00;58812.66;5054231;28;73271;-48
2024/02/12 02:04:41;;;;;;;;;4.33;1.00;;;;;-147.14;100.00;58812.66;5039915;28;45236;-45
2024/02/12 02:07:16;;;;;;;;;1.00;1.00;;;;;-147.14;100.00;58812.66;5042470;28;48806;-44
2024/02/12 02:09:42;;;;;;;;;1.33;1.33;;;;;-147.14;100.00;58812.66;5057409;28;45404;-47
2024/02/12 02:12:08;;;;;;;;;4.00;2.67;;;;;-147.14;100.00;58812.66;5043887;28;45340;-49
2024/02/12 02:14:33;;;;;;;;;3.00;2.00;;;;;-147.14;100.00;58812.66;5047265;28;45727;-47
2024/02/12 02:16:59;;;;;;;;;5.00;2.00;;;;;-147.14;100.00;58812.66;5039168;28;65857;-49
2024/02/12 02:19:26;;;;;;;;;4.33;2.33;;;;;-147.14;100.00;58812.66;5036725;28;75672;-47
2024/02/12 02:21:52;;;;;;;;;1.67;1.00;;;;;-147.14;100.00;58812.66;5052107;28;45269;-48
2024/02/12 02:24:18;;;;;;;;;2.67;1.00;;;;;-147.14;100.00;58812.66;5039210;28;45372;-48
2024/02/12 02:26:44;;;;;;;;;2.33;2.00;;;;;-147.14;100.00;58812.66;5042917;28;45566;-46
2024/02/12 02:29:12;;;;;;;;;5.00;2.00;;;;;-147.14;100.00;58812.66;5056300;28;46058;-48
2024/02/12 02:31:38;;;;;;;;;1.00;1.00;;;;;-147.14;100.00;58812.66;5054337;28;45297;-46
2024/02/12 02:34:03;;;;;;;;;2.00;1.33;;;;;-147.14;100.00;58812.66;5056418;28;45442;-46
2024/02/12 02:36:29;;;;;;;;;5.00;1.00;;;;;-147.14;100.00;58812.66;5023475;28;45353;-47
2024/02/12 02:38:54;;;;;;;;;3.67;1.33;;;;;-147.14;100.00;58812.66;5055699;28;65112;-47
2024/02/12 02:41:19;;;;;;;;;3.00;0.67;;;;;-147.14;100.00;58812.66;5052967;28;73325;-49
2024/02/12 02:43:45;;;;;;;;;2.67;2.00;;;;;-147.14;100.00;58812.66;5055668;28;68305;-45
2024/02/12 02:46:10;;;;;;;;;2.00;0.00;;;;;-147.14;100.00;58812.66;5040063;28;45312;-49
2024/02/12 02:48:35;;;;;;;;;1.00;1.00;;;;;-147.14;100.00;58812.66;5031268;28;45969;-49
2024/02/12 02:51:01;;;;;;;;;3.00;2.00;;;;;-147.14;100.00;58812.66;5043877;28;72154;-48
2024/02/12 02:53:26;;;;;;;;;1.67;1.33;;;;;-147.14;100.00;58812.66;5053805;28;69154;-45
2024/02/12 02:55:51;;;;;;;;;1.67;1.00;;;;;-147.14;100.00;58812.66;5056191;28;69265;-46
2024/02/12 02:58:17;;;;;;;;;2.00;2.00;;;;;-147.14;100.00;58812.66;5047630;28;47026;-48
2024/02/12 03:00:42;;;;;;;;;3.00;1.00;;;;;-147.14;100.00;58812.66;5038237;28;72099;-46
2024/02/12 03:03:08;;;;;;;;;1.33;0.67;;;;;-147.14;100.00;58812.66;5037366;28;69225;-46
2024/02/12 03:05:34;;;;;;;;;3.00;1.67;;;;;-147.14;100.00;58812.66;5025937;28;45407;-48
2024/02/12 03:08:06;;;;;;;;;3.00;2.00;;;;;-147.14;100.00;58812.66;5047656;28;46443;-45
2024/02/12 03:10:32;;;;;;;;;1.33;1.33;;;;;-147.14;100.00;58812.66;5039306;28;45226;-47
2024/02/12 03:12:57;;;;;;;;;6.00;3.00;;;;;-147.14;100.00;58812.66;5049146;28;45288;-46
2024/02/12 03:15:23;;;;;;;;;2.67;1.67;;;;;-147.14;100.00;58812.66;5039722;28;45497;-48
2024/02/12 03:17:48;;;;;;;;;3.00;3.00;;;;;-147.14;100.00;58812.66;5037738;28;71648;-46
2024/02/12 03:20:14;;;;;;;;;3.67;3.00;;;;;-147.14;100.00;58812.66;5038788;28;45218;-45
2024/02/12 03:22:40;;;;;;;;;2.67;2.00;;;;;-147.14;100.00;58812.66;5038972;28;45363;-47
2024/02/12 03:25:10;;;;;;;;;3.33;2.00;;;;;-147.14;100.00;58812.66;5042572;28;45475;-46
2024/02/12 03:27:37;;;;;;;;;3.33;2.00;;;;;-147.14;100.00;58812.66;5056499;28;45371;-45
2024/02/12 03:30:04;;;;;;;;;2.00;2.00;;;;;-147.14;100.00;58812.66;5055372;28;45255;-45
2024/02/12 03:32:30;;;;;;;;;2.00;2.00;;;;;-147.14;100.00;58812.66;5059368;28;45480;-47
2024/02/12 03:34:57;;;;;;;;;1.00;1.00;;;;;-147.14;100.00;58812.66;5057859;28;45296;-49
2024/02/12 03:37:23;;;;;;;;;5.00;2.00;;;;;-147.14;100.00;58812.66;5039103;28;46167;-46
2024/02/12 03:39:48;;;;;;;;;3.67;1.67;;;;;-147.14;100.00;58812.66;5030841;28;51353;-46
2024/02/12 03:42:13;;;;;;;;;2.00;2.00;;;;;-147.14;100.00;58812.66;5032527;28;45265;-49
2024/02/12 03:44:42;;;;;;;;;1.00;1.00;;;;;-147.14;100.00;58812.66;5031980;28;70537;-46
2024/02/12 03:47:08;;;;;;;;;3.00;2.00;;;;;-147.14;100.00;58812.66;5021649;28;45367;-47
2024/02/12 04:00:33;;;;;;;;;5.67;2.67;;;;;-147.14;100.00;58812.66;5031767;28;45493;-48
2024/02/12 04:02:59;;;;;;;;;2.00;2.00;;;;;-147.14;100.00;58812.66;5031982;28;45768;-45
2024/02/12 04:05:24;;;;;;;;;3.67;3.00;;;;;-147.14;100.00;58812.66;5022396;28;45257;-48
2024/02/12 04:07:50;;;;;;;;;2.00;2.00;;;;;-147.14;100.00;58812.66;5020993;28;73712;-45
2024/02/12 04:10:15;;;;;;;;;6.33;2.67;;;;;-147.14;100.00;58812.66;5033092;28;72070;-46
2024/02/12 04:12:43;;;;;;;;;6.00;3.00;;;;;-147.14;100.00;58812.66;5040042;28;45285;-48
2024/02/12 04:15:11;;;;;;;;;2.00;1.00;;;;;-147.14;100.00;58812.66;5025577;28;45609;-45
2024/02/12 04:17:37;;;;;;;;;5.00;2.00;;;;;-147.14;100.00;58812.66;5021337;28;47580;-46
2024/02/12 04:20:05;;;;;;;;;3.33;2.00;;;;;-147.14;100.00;58812.66;5022407;28;45440;-48
2024/02/12 04:22:33;;;;;;;;;2.67;1.00;;;;;-147.14;100.00;58812.66;5021401;28;45301;-46
2024/02/12 04:24:59;;;;;;;;;3.00;1.33;;;;;-147.14;100.00;58812.66;5024759;28;45537;-47
2024/02/12 04:27:24;;;;;;;;;3.67;3.00;;;;;-147.14;100.00;58812.66;5039033;28;46281;-47
2024/02/12 04:29:51;;;;;;;;;2.00;2.00;;;;;-147.14;100.00;58812.66;5036838;28;45281;-47
2024/02/12 04:32:16;;;;;;;;;2.00;1.00;;;;;-147.14;100.00;58812.66;5038883;28;45358;-47
2024/02/12 04:34:41;;;;;;;;;6.33;2.67;;;;;-147.14;100.00;58812.66;5037012;28;70389;-47
2024/02/12 04:37:08;;;;;;;;;2.67;2.67;;;;;-147.14;100.00;58812.66;5034014;28;59381;-47
2024/02/12 04:39:37;;;;;;;;;3.33;3.00;;;;;-147.14;100.00;58812.66;5055261;28;45226;-47
2024/02/12 04:42:03;;;;;;;;;6.67;3.00;;;;;-147.14;100.00;58812.66;5041607;28;45408;-50
2024/02/12 04:44:28;;;;;;;;;2.00;2.00;;;;;-147.14;100.00;58812.66;5037683;28;45824;-48
2024/02/12 04:46:58;;;;;;;;;3.00;1.67;;;;;-147.14;100.00;58812.66;5022597;28;45470;-46
2024/02/12 04:49:23;;;;;;;;;2.67;1.00;;;;;-147.14;100.00;58812.66;5040302;28;45328;-46
2024/02/12 04:51:49;;;;;;;;;4.00;3.67;;;;;-147.14;100.00;58812.66;5039410;28;69218;-46
2024/02/12 04:54:14;;;;;;;;;6.00;1.00;;;;;-147.14;100.00;58812.66;5040244;28;45643;-47
2024/02/12 04:56:43;;;;;;;;;2.33;1.00;;;;;-147.14;100.00;58812.66;5039468;28;74523;-45
2024/02/12 04:59:10;;;;;;;;;3.00;2.00;;;;;-147.14;100.00;58812.66;5039975;28;45335;-45
2024/02/12 05:01:36;;;;;;;;;2.00;2.00;;;;;-147.14;100.00;58812.66;5039864;28;45378;-46
2024/02/12 05:04:01;;;;;;;;;1.00;1.00;;;;;-147.14;100.00;58812.66;5053075;28;45304;-46
2024/02/12 05:06:27;;;;;;;;;2.67;2.00;;;;;-147.14;100.00;58812.66;5039885;28;46755;-49
2024/02/12 05:08:52;;;;;;;;;4.00;1.00;;;;;-147.14;100.00;58812.66;5044251;28;45362;-48
2024/02/12 05:11:18;;;;;;;;;2.00;2.00;;;;;-147.14;100.00;58812.66;5057659;28;68107;-47
2024/02/12 05:13:44;;;;;;;;;1.00;1.00;;;;;-147.14;100.00;58812.66;5053303;28;45540;-48
2024/02/12 05:16:10;;;;;;;;;3.00;2.00;;;;;-147.14;100.00;58812.66;5038646;28;75601;-48
2024/02/12 05:24:03;;;;;;;;;5.67;2.00;;;;;-147.14;100.00;58812.66;5040254;28;45159;-45
2024/02/12 05:26:29;;;;;;;;;4.33;1.00;;;;;-147.14;100.00;58812.66;5041445;28;46815;-47
2024/02/12 05:28:54;;;;;;;;;1.33;1.33;;;;;-147.14;100.00;58812.66;5057379;28;72091;-48
2024/02/12 05:31:19;;;;;;;;;4.00;1.00;;;;;-147.14;100.00;58812.66;5056122;28;45349;-46
2024/02/12 05:33:45;;;;;;;;;2.00;2.00;;;;;-147.14;100.00;58812.66;5057307;28;69138;-47
2024/02/12 05:36:17;;;;;;;;;2.33;2.00;;;;;-147.14;100.00;58812.66;5037961;28;47095;-49
2024/02/12 05:38:46;;;;;;;;;2.67;2.00;;;;;-147.14;100.00;58812.66;5058090;28;45272;-47
2024/02/12 05:41:12;;;;;;;;;3.00;2.00;;;;;-147.14;100.00;58812.66;5037553;28;45757;-46
2024/02/12 05:43:37;;;;;;;;;3.33;1.67;;;;;-147.14;100.00;58812.66;5058163;28;45550;-47
2024/02/12 05:46:04;;;;;;;;;2.00;2.00;;;;;-147.14;100.00;58812.66;5041745;28;75668;-49
2024/02/12 05:48:29;;;;;;;;;2.33;1.00;;;;;-147.14;100.00;58812.66;5038893;28;45378;-46
2024/02/12 05:50:55;;;;;;;;;2.00;1.00;;;;;-147.14;100.00;58812.66;5051705;28;61459;-48
2024/02/12 05:53:20;;;;;;;;;2.00;2.00;;;;;-147.14;100.00;58812.66;5045810;28;45419;-47
2024/02/12 05:55:45;;;;;;;;;4.00;3.67;;;;;-147.14;100.00;58812.66;5043051;28;68348;-47
2024/02/12 05:58:12;;;;;;;;;2.00;2.00;;;;;-147.14;100.00;58812.66;5038531;28;70515;-48
2024/02/12 06:00:37;;;;;;;;;4.00;2.33;;;;;-147.14;100.00;58812.66;5016465;28;45293;-49
2024/02/12 06:03:03;;;;;;;;;3.00;3.00;;;;;-147.14;100.00;58812.66;5049523;28;45285;-48
2024/02/12 06:05:28;;;;;;;;;2.33;2.00;;;;;-147.14;100.00;58812.66;5040442;28;47477;-48
2024/02/12 06:07:53;;;;;;;;;4.00;2.67;;;;;-147.14;100.00;58812.66;5039288;28;66298;-49
2024/02/12 06:10:19;;;;;;;;;4.33;2.00;;;;;-147.14;100.00;58812.66;5039618;28;69357;-49
2024/02/12 06:12:44;;;;;;;;;4.00;1.00;;;;;-147.14;100.00;58812.66;5048315;28;45525;-48
2024/02/12 06:15:10;;;;;;;;;1.67;1.00;;;;;-147.14;100.00;58812.66;5043315;28;45654;-46
2024/02/12 06:17:36;;;;;;;;;3.67;3.00;;;;;-147.14;100.00;58812.66;5047875;28;45252;-48
2024/02/12 06:20:05;;;;;;;;;3.33;1.67;;;;;-147.14;100.00;58812.66;5038000;28;45858;-46
2024/02/12 06:22:31;;;;;;;;;3.00;1.67;;;;;-147.14;100.00;58812.66;5048303;28;45467;-45
2024/02/12 06:24:56;;;;;;;;;2.67;1.00;;;;;-147.14;100.00;58812.66;5041678;28;45797;-47
2024/02/12 06:27:22;;;;;;;;;2.33;2.00;;;;;-147.14;100.00;58812.66;5056829;28;73191;-46
2024/02/12 06:29:47;;;;;;;;;4.00;3.00;;;;;-147.14;100.00;58812.66;5025270;28;45316;-47
2024/02/12 06:32:14;;;;;;;;;0.00;0.00;;;;;-147.14;100.00;58812.66;5038081;28;59908;-48
2024/02/12 06:34:44;;;;;;;;;2.00;2.00;;;;;-147.14;100.00;58812.66;5053183;28;47197;-47
2024/02/12 06:37:09;;;;;;;;;3.00;3.00;;;;;-147.14;100.00;58812.66;5056903;28;45432;-49
2024/02/12 06:39:35;;;;;;;;;3.67;2.00;;;;;-147.14;100.00;58812.66;5052904;28;45441;-48
2024/02/12 06:42:01;;;;;;;;;1.67;1.67;;;;;-147.14;100.00;58812.66;5031594;28;45580;-48
2024/02/12 06:44:26;;;;;;;;;4.00;3.00;;;;;-147.14;100.00;58812.66;5040138;28;46083;-49
2024/02/12 06:46:52;;;;;;;;;7.33;4.00;;;;;-147.14;100.00;58812.66;5039256;28;45190;-49
2024/02/12 06:49:17;;;;;;;;;1.00;1.00;;;;;-147.14;100.00;58812.66;5053170;28;45472;-49
2024/02/12 06:51:43;;;;;;;;;5.00;3.00;;;;;-147.14;100.00;58812.66;5056784;28;69155;-49
2024/02/12 06:54:08;;;;;;;;;3.00;3.00;;;;;-147.14;100.00;58812.66;5046518;28;45329;-49
2024/02/12 06:56:41;;;;;;;;;3.33;3.00;;;;;-147.14;100.00;58812.66;5049550;28;45312;-47
2024/02/12 06:59:07;;;;;;;;;3.00;3.00;;;;;-147.14;100.00;58812.66;5022583;28;45267;-47
2024/02/12 07:01:33;;;;;;;;;2.33;2.00;;;;;-147.14;100.00;58812.66;5039746;28;45592;-44
2024/02/12 07:03:59;;;;;;;;;3.67;3.00;;;;;-147.14;100.00;58812.66;5023853;28;47046;-45
2024/02/12 07:06:24;;;;;;;;;5.00;2.00;;;;;-147.14;100.00;58812.66;5050694;28;45276;-48
2024/02/12 07:08:49;;;;;;;;;2.67;2.67;;;;;-147.14;100.00;58812.66;5045922;28;45308;-48
2024/02/12 07:11:15;;;;;;;;;4.33;3.33;;;;;-147.14;100.00;58812.66;5050431;28;45269;-45
2024/02/12 07:13:41;;;;;;;;;3.00;3.00;;;;;-147.14;100.00;58812.66;5027690;28;46383;-49
2024/02/12 07:16:08;;;;;;;;;4.00;2.00;;;;;-147.14;100.00;58812.66;5042614;28;45396;-48
2024/02/12 07:18:33;;;;;;;;;3.67;2.67;;;;;-147.14;100.00;58812.66;5042930;28;45526;-46
2024/02/12 07:20:58;;;;;;;;;6.67;1.33;;;;;-147.14;100.00;58812.66;5042361;28;45249;-46
2024/02/12 07:23:24;;;;;;;;;4.67;3.67;;;;;-147.14;100.00;58812.66;5041438;28;70261;-47
2024/02/12 07:25:49;;;;;;;;;6.67;4.00;;;;;-147.14;100.00;58812.66;5039913;28;45332;-49
2024/02/12 07:28:15;;;;;;;;;6.33;5.00;;;;;-147.14;100.00;58812.66;5057316;28;45242;-47
2024/02/12 07:30:40;;;;;;;;;7.67;4.00;;;;;-147.14;100.00;58812.66;5060446;28;45419;-49
2024/02/12 07:33:06;;;;;;;;;2.33;2.33;;;;;-147.14;100.00;58812.66;5060370;28;45890;-50
2024/02/12 07:35:32;;;;;;;;;9.00;4.00;;;;;-147.14;100.00;58812.66;5060342;28;45378;-49
2024/02/12 07:37:58;;;;;;;;;3.67;3.67;;;;;-147.14;100.00;58812.66;5046986;28;45295;-44
2024/02/12 07:40:24;;;;;;;;;9.67;4.00;;;;;-147.14;100.00;58812.66;5060681;28;45512;-48
2024/02/12 07:42:49;;;;;;;;;3.67;2.00;;;;;-147.14;100.00;58812.66;5058827;28;46303;-46
2024/02/12 07:45:14;;;;;;;;;6.00;4.00;;;;;-147.14;100.00;58812.66;5049659;28;62204;-44
2024/02/12 07:47:41;;;;;;;;;4.00;4.00;;;;;-147.14;100.00;58812.66;5039923;28;69432;-46
2024/02/12 07:50:07;;;;;;;;;4.00;4.00;;;;;-147.14;100.00;58812.66;5041943;28;45562;-47
2024/02/12 07:52:33;;;;;;;;;4.33;3.33;;;;;-147.14;100.00;58812.66;5042882;28;46227;-45
2024/02/12 07:55:00;;;;;;;;;5.67;5.67;;;;;-147.14;100.00;58812.66;5059591;28;45623;-46
2024/02/12 07:57:25;;;;;;;;;7.00;4.00;;;;;-147.14;100.00;58812.66;5045543;28;45306;-46
2024/02/12 07:59:51;;;;;;;;;5.00;5.00;;;;;-147.14;100.00;58812.66;5027189;28;45347;-44
2024/02/12 08:02:16;;;;;;;;;13.00;7.67;;;;;-147.14;100.00;58812.66;5052408;28;74561;-46
2024/02/12 08:04:41;;;;;;;;;35.67;26.00;;;;;-147.14;100.00;58812.66;5038675;28;70052;-45
2024/02/12 08:07:07;;;;;;;;;6.00;5.00;;;;;-147.14;100.00;58812.66;5053891;28;45299;-46
2024/02/12 08:09:33;;;;;;;;;11.67;7.00;;;;;-147.14;100.00;58812.66;5042011;28;45528;-45
2024/02/12 08:12:01;;;;;;;;;9.33;7.33;;;;;-147.14;100.00;58812.66;5037245;28;46186;-45
2024/02/12 08:14:26;;;;;;;;;9.33;6.00;;;;;-147.14;100.00;58812.66;5050025;28;45295;-46
2024/02/12 08:16:52;;;;;;;;;8.33;8.00;;;;;-147.14;100.00;58812.66;5041247;28;45327;-48
2024/02/12 08:19:18;;;;;;;;;6.67;6.67;;;;;-147.14;100.00;58812.66;5050656;28;46453;-44
2024/02/12 08:21:45;;;;;;;;;13.00;11.00;;;;;-147.14;100.00;58812.66;5044200;28;46071;-48
2024/02/12 08:24:10;;;;;;;;;11.67;9.67;;;;;-147.14;100.00;58812.66;5040982;28;45482;-48
2024/02/12 08:26:36;;;;;;;;;12.33;11.33;;;;;-147.14;100.00;58812.66;5044569;28;45391;-46
2024/02/12 08:29:02;;;;;;;;;13.00;8.00;;;;;-147.14;100.00;58812.66;5059116;28;45386;-45
2024/02/12 08:31:27;;;;;;;;;13.00;9.33;;;;;-147.14;100.00;58812.66;5056667;28;46095;-48
2024/02/12 08:33:54;;;;;;;;;12.67;9.33;;;;;-147.14;100.00;58812.66;5024835;28;71402;-47
2024/02/12 08:36:19;;;;;;;;;7.00;7.00;;;;;-147.14;100.00;58812.66;5041510;28;45372;-46
2024/02/12 08:38:44;;;;;;;;;7.33;7.00;;;;;-147.14;100.00;58812.66;5058850;28;45355;-48
2024/02/12 08:41:10;;;;;;;;;13.33;9.00;;;;;-147.14;100.00;58812.66;5055638;28;73190;-46
2024/02/12 08:43:35;;;;;;;;;16.00;8.00;;;;;-147.14;100.00;58812.66;5040048;28;73301;-47
2024/02/12 08:46:01;;;;;;;;;10.33;9.00;;;;;-147.14;100.00;58812.66;5043888;28;45383;-46
2024/02/12 08:48:26;;;;;;;;;24.67;15.33;;;;;-147.14;100.00;58812.66;5048362;28;45797;-49
2024/02/12 08:50:53;;;;;;;;;7.00;7.00;;;;;-147.14;100.00;58812.66;5044645;28;45351;-47
2024/02/12 08:53:18;;;;;;;;;11.67;8.00;;;;;-147.14;100.00;58812.66;5045852;28;45320;-49
2024/02/12 08:55:44;;;;;;;;;7.00;5.00;;;;;-147.14;100.00;58812.66;5056892;28;45442;-46
2024/02/12 08:58:10;;;;;;;;;7.33;7.33;;;;;-147.14;100.00;58812.66;5040473;28;45463;-45
2024/02/12 09:00:36;;;;;;;;;5.67;5.67;;;;;-147.14;100.00;58812.66;5049499;28;45427;-46
2024/02/12 09:03:02;;;;;;;;;9.67;6.67;;;;;-147.14;100.00;58812.66;5038330;28;45479;-47
2024/02/12 09:05:27;;;;;;;;;9.33;7.00;;;;;-147.14;100.00;58812.66;5040778;28;45288;-48
2024/02/12 09:07:53;;;;;;;;;6.00;4.00;;;;;-147.14;100.00;58812.66;5040120;28;64825;-47
2024/02/12 09:10:18;;;;;;;;;6.33;5.00;;;;;-147.14;100.00;58812.66;5039421;28;71628;-47
2024/02/12 09:12:44;;;;;;;;;6.33;5.00;;;;;-147.14;100.00;58812.66;5040672;28;45382;-46
2024/02/12 09:15:16;;;;;;;;;5.00;4.00;;;;;-147.14;100.00;58812.66;5052882;28;45287;-47
2024/02/12 09:17:42;;;;;;;;;6.00;5.00;;;;;-147.14;100.00;58812.66;5049664;28;45303;-48
2024/02/12 09:20:10;;;;;;;;;8.00;5.00;;;;;-147.14;100.00;58812.66;5040182;28;46293;-47
2024/02/12 09:22:37;;;;;;;;;7.00;5.00;;;;;-147.14;100.00;58812.66;5040501;28;45327;-46
2024/02/12 09:25:03;;;;;;;;;6.33;5.00;;;;;-147.14;100.00;58812.66;5042019;28;45436;-46
2024/02/12 09:27:29;;;;;;;;;10.67;8.00;;;;;-147.14;100.00;58812.66;5048809;28;45702;-46
2024/02/12 09:29:55;;;;;;;;;6.00;5.00;;;;;-147.14;100.00;58812.66;5039369;28;46169;-48
2024/02/12 09:32:21;;;;;;;;;3.67;3.67;;;;;-147.14;100.00;58812.66;5039029;28;45316;-49
2024/02/12 09:34:46;;;;;;;;;9.00;7.00;;;;;-147.14;100.00;58812.66;5056200;28;45317;-45
2024/02/12 09:37:11;;;;;;;;;6.00;6.00;;;;;-147.14;100.00;58812.66;5056838;28;67787;-45
2024/02/12 09:39:37;;;;;;;;;9.00;6.67;;;;;-147.14;100.00;58812.66;5056153;28;73604;-46
2024/02/12 09:42:03;;;;;;;;;7.00;5.33;;;;;-147.14;100.00;58812.66;5032080;28;45430;-45
2024/02/12 09:44:29;;;;;;;;;3.00;2.67;;;;;-147.14;100.00;58812.66;5051525;28;45493;-47
2024/02/12 09:47:00;;;;;;;;;7.33;5.00;;;;;-147.14;100.00;58812.66;5039569;28;45388;-46
2024/02/12 09:49:25;;;;;;;;;5.00;4.33;;;;;-147.14;100.00;58812.66;5020758;28;46328;-46
2024/02/12 09:51:53;;;;;;;;;7.67;6.00;;;;;-147.14;100.00;58812.66;5031844;28;45392;-44
2024/02/12 09:54:21;;;;;;;;;7.67;4.33;;;;;-147.14;100.00;58812.66;5050470;28;45280;-45
2024/02/12 09:56:47;;;;;;;;;11.33;7.67;;;;;-147.14;100.00;58812.66;5021817;28;45491;-46
2024/02/12 09:59:13;;;;;;;;;6.67;5.67;;;;;-147.14;100.00;58812.66;5038532;28;46210;-45
2024/02/12 10:01:40;;;;;;;;;5.00;5.00;;;;;-147.14;100.00;58812.66;5039148;28;45407;-46
2024/02/12 10:04:06;;;;;;;;;6.00;6.00;;;;;-147.14;100.00;58812.66;5039119;28;45531;-45
2024/02/12 10:06:32;;;;;;;;;6.00;5.00;;;;;-147.14;100.00;58812.66;5038116;28;64763;-46
2024/02/12 10:09:08;;;;;;;;;8.00;5.00;;;;;-147.14;100.00;58812.66;5056563;28;47258;-47
2024/02/12 10:11:34;;;;;;;;;7.67;6.67;;;;;-147.14;100.00;58812.66;5039717;28;45182;-45
2024/02/12 10:14:01;;;;;;;;;5.67;5.33;;;;;-147.14;100.00;58812.66;5050529;28;45419;-45
2024/02/12 10:16:27;;;;;;;;;9.33;6.33;;;;;-147.14;100.00;58812.66;5027285;28;46047;-45
2024/02/12 10:18:52;;;;;;;;;9.33;5.67;;;;;-147.14;100.00;58812.66;5057302;28;46089;-46
2024/02/12 10:21:18;;;;;;;;;5.00;5.00;;;;;-147.14;100.00;58812.66;5038015;28;45356;-51
2024/02/12 10:23:44;;;;;;;;;7.67;5.33;;;;;-147.14;100.00;58812.66;5039165;28;45260;-45
2024/02/12 10:26:10;;;;;;;;;6.00;4.00;;;;;-147.14;100.00;58812.66;5033834;28;45468;-46
2024/02/12 10:28:36;;;;;;;;;5.67;5.67;;;;;-147.14;100.00;58812.66;5021330;28;45497;-47
2024/02/12 10:31:04;;;;;;;;;5.00;4.33;;;;;-147.14;100.00;58812.66;5049534;28;45476;-45
2024/02/12 10:33:33;;;;;;;;;8.00;7.00;;;;;-147.14;100.00;58812.66;5055302;28;45170;-48
2024/02/12 10:36:00;;;;;;;;;5.33;5.00;;;;;-147.14;100.00;58812.66;5038216;28;45272;-46
2024/02/12 10:38:27;;;;;;;;;6.67;6.67;;;;;-147.14;100.00;58812.66;5037735;28;46238;-46
2024/02/12 10:40:52;;;;;;;;;4.67;3.00;;;;;-147.14;100.00;58812.66;5024414;28;71228;-48
2024/02/12 10:43:22;;;;;;;;;6.00;5.00;;;;;-147.14;100.00;58812.66;5048908;28;45210;-45
2024/02/12 10:45:48;;;;;;;;;8.67;4.67;;;;;-147.14;100.00;58812.66;5046206;28;45494;-47
2024/02/12 10:48:16;;;;;;;;;6.67;5.00;;;;;-147.14;100.00;58812.66;5048530;28;46299;-48
2024/02/12 10:50:45;;;;;;;;;4.00;4.00;;;;;-147.14;100.00;58812.66;5048112;28;45381;-47
2024/02/12 10:53:11;;;;;;;;;8.67;6.00;;;;;-147.14;100.00;58812.66;5046629;28;45298;-48
2024/02/12 10:55:37;;;;;;;;;5.67;5.67;;;;;-147.14;100.00;58812.66;5047235;28;45513;-49
2024/02/12 10:58:04;;;;;;;;;5.00;5.00;;;;;-147.14;100.00;58812.66;5035421;28;46948;-46
2024/02/12 11:00:30;;;;;;;;;5.33;5.33;;;;;-147.14;100.00;58812.66;5037991;28;45344;-49
2024/02/12 11:02:55;;;;;;;;;6.67;4.33;;;;;-147.14;100.00;58812.66;5061078;28;45449;-47
2024/02/12 11:05:21;;;;;;;;;9.00;6.00;;;;;-147.14;100.00;58812.66;5041067;28;45749;-46
2024/02/12 11:07:46;;;;;;;;;6.67;6.67;;;;;-147.14;100.00;58812.66;5041645;28;63853;-48
2024/02/12 11:10:17;;;;;;;;;6.33;6.00;;;;;-147.14;100.00;58812.66;5054451;28;45288;-50
2024/02/12 11:12:45;;;;;;;;;5.67;5.67;;;;;-147.14;100.00;58812.66;5050303;28;45361;-47
2024/02/12 11:15:19;;;;;;;;;5.00;5.00;;;;;-147.14;100.00;58812.66;5044376;28;45625;-50
2024/02/12 11:17:44;;;;;;;;;10.33;6.00;;;;;-147.14;100.00;58812.66;5041782;28;45298;-47
2024/02/12 11:20:20;;;;;;;;;8.00;6.33;;;;;-147.14;100.00;58812.66;5041574;28;70166;-50
2024/02/12 11:22:46;;;;;;;;;6.67;6.67;;;;;-147.14;100.00;58812.66;5060568;28;45323;-49